Airfield :
LOGIN :

Register | Disclaimer

   EN    FR    IT 

 










Legend :    VFR   Marginal VFR   IFR   Intensive IFR   Very Intensive IFR
Visi :
Ceiling :
>= 8 km
>= 3000ft
5 to 8 km
1000 to 3000 ft
1500m to 5 km
500 to 1000 ft
800 to 1500m
200 to 500 ft
< 800m
< 200 ft
Symbols :   Thunderstorms  Fog  Heavy snow  Heavy precipitations  Wind > 20 kt
SIGMETs :     Misc.  Thunderstorms  Icing  Turbulence  Mountain Waves  Volcanic Ashes






- Airport Elevation : -13 ft
- IATA code : LEY


EHLE - Lelystad

CURRENT METAR :
  • 270825Z AUTO 18008KT 9000 FEW034 SCT047 02/01 Q0999 NOSIG

EXPIRED METARs :
  • 270755Z AUTO 17007KT 9000 FEW039 02/01 Q1000 NOSIG
  • 270725Z AUTO 19008KT 9999 NSC 02/01 Q1000 NOSIG
  • 270655Z AUTO 17006KT 9000 FEW040 SCT047 01/01 Q1000 REDZ NOSIG
  • 270625Z AUTO 17006KT 9999 NSC 01/01 Q1001 NOSIG
  • 270555Z AUTO 20007KT 9999 NSC 01/01 Q1001 NOSIG

TAF TAF EHLE
Valid from the 27 at 06:00 until the 28 at 12:00 UTC


270517Z 2706/2812 18008KT 9999 SCT025
BECMG 2709/2712 6000 -RA SCT006 BKN012
TEMPO 2711/2718 4000 RA SCT004 BKN006
PROB30
TEMPO 2712/2716 VRB03KT 2500 RASN BKN004
BECMG 2715/2717 31010KT
BECMG 2717/2720 32015G25KT 9999 NSW SCT025
TEMPO 2718/2720 6000 SHRAGS SCT020CB BKN030
BECMG 2721/2724 29010KT
BECMG 2806/2809 21010KT



MET'MAP, your aeronautical weather chart ! - Copyright ORBIFLY December 2007 - Disclaimer

ORBIFLY MET'MAP TEAM :

Programming & Development : Alexandra Zaïnal
Concept & original design : Baudouin d'Aumeries
Assistance for programming : Marc-Olivier Méhu
Technical & hardware support : Manuel Goepfert

Contact : metmap@orbifly.com




SOURCES & CREDITS :

   NOAA